sensor_id;sensor_type;location;lat;lon;timestamp;temperature;humidity
17381;DHT22;8808;52.478;13.378;2024-02-15T00:00:20;10.00;99.90
17381;DHT22;8808;52.478;13.378;2024-02-15T00:02:49;9.90;99.90
17381;DHT22;8808;52.478;13.378;2024-02-15T00:05:16;10.00;99.90
17381;DHT22;8808;52.478;13.378;2024-02-15T00:07:43;10.00;99.90
17381;DHT22;8808;52.478;13.378;2024-02-15T00:10:14;10.00;99.90
17381;DHT22;8808;52.478;13.378;2024-02-15T00:12:41;10.00;99.90
17381;DHT22;8808;52.478;13.378;2024-02-15T00:15:08;10.00;99.90
17381;DHT22;8808;52.478;13.378;2024-02-15T00:17:36;10.00;99.90
17381;DHT22;8808;52.478;13.378;2024-02-15T00:20:05;10.00;99.90
17381;DHT22;8808;52.478;13.378;2024-02-15T00:22:35;10.00;99.90
17381;DHT22;8808;52.478;13.378;2024-02-15T00:25:02;10.00;99.90
17381;DHT22;8808;52.478;13.378;2024-02-15T00:27:30;10.00;99.90
17381;DHT22;8808;52.478;13.378;2024-02-15T00:29:58;10.10;99.90
17381;DHT22;8808;52.478;13.378;2024-02-15T00:32:25;10.10;99.90
17381;DHT22;8808;52.478;13.378;2024-02-15T00:34:52;10.10;99.90
17381;DHT22;8808;52.478;13.378;2024-02-15T00:37:20;10.10;99.90
17381;DHT22;8808;52.478;13.378;2024-02-15T00:39:47;10.10;99.90
17381;DHT22;8808;52.478;13.378;2024-02-15T00:42:14;10.10;99.90
17381;DHT22;8808;52.478;13.378;2024-02-15T00:44:42;10.10;99.90
17381;DHT22;8808;52.478;13.378;2024-02-15T00:47:09;10.10;99.90
17381;DHT22;8808;52.478;13.378;2024-02-15T00:49:37;10.10;99.90
17381;DHT22;8808;52.478;13.378;2024-02-15T00:52:05;10.10;99.90
17381;DHT22;8808;52.478;13.378;2024-02-15T00:54:33;10.10;99.90
17381;DHT22;8808;52.478;13.378;2024-02-15T00:57:00;10.10;99.90
17381;DHT22;8808;52.478;13.378;2024-02-15T00:59:27;10.10;99.90
17381;DHT22;8808;52.478;13.378;2024-02-15T01:01:54;10.10;99.90
17381;DHT22;8808;52.478;13.378;2024-02-15T01:04:21;10.10;99.90
17381;DHT22;8808;52.478;13.378;2024-02-15T01:06:48;10.10;99.90
17381;DHT22;8808;52.478;13.378;2024-02-15T01:09:15;10.10;99.90
17381;DHT22;8808;52.478;13.378;2024-02-15T01:11:43;10.10;99.90
17381;DHT22;8808;52.478;13.378;2024-02-15T01:14:10;10.10;99.90
17381;DHT22;8808;52.478;13.378;2024-02-15T01:16:37;10.10;99.90
17381;DHT22;8808;52.478;13.378;2024-02-15T01:19:04;10.10;99.90
17381;DHT22;8808;52.478;13.378;2024-02-15T01:21:31;10.00;99.90
17381;DHT22;8808;52.478;13.378;2024-02-15T01:23:59;10.10;99.90
17381;DHT22;8808;52.478;13.378;2024-02-15T01:26:27;10.10;99.90
17381;DHT22;8808;52.478;13.378;2024-02-15T01:28:55;10.00;99.90
17381;DHT22;8808;52.478;13.378;2024-02-15T01:31:22;10.10;99.90
17381;DHT22;8808;52.478;13.378;2024-02-15T01:33:49;10.10;99.90
17381;DHT22;8808;52.478;13.378;2024-02-15T01:36:17;10.00;99.90
17381;DHT22;8808;52.478;13.378;2024-02-15T01:38:44;10.10;99.90
17381;DHT22;8808;52.478;13.378;2024-02-15T01:41:11;10.00;99.90
17381;DHT22;8808;52.478;13.378;2024-02-15T01:43:39;10.00;99.90
17381;DHT22;8808;52.478;13.378;2024-02-15T01:46:11;10.00;99.90
17381;DHT22;8808;52.478;13.378;2024-02-15T01:48:39;10.10;99.90
17381;DHT22;8808;52.478;13.378;2024-02-15T01:51:07;10.10;99.90
17381;DHT22;8808;52.478;13.378;2024-02-15T02:03:41;10.10;99.90
17381;DHT22;8808;52.478;13.378;2024-02-15T02:06:08;10.10;99.90
17381;DHT22;8808;52.478;13.378;2024-02-15T02:08:35;10.10;99.90
17381;DHT22;8808;52.478;13.378;2024-02-15T02:11:02;10.10;99.90
17381;DHT22;8808;52.478;13.378;2024-02-15T02:13:29;10.00;99.90
17381;DHT22;8808;52.478;13.378;2024-02-15T02:15:56;10.10;99.90
17381;DHT22;8808;52.478;13.378;2024-02-15T02:18:25;10.10;99.90
17381;DHT22;8808;52.478;13.378;2024-02-15T02:20:53;10.10;99.90
17381;DHT22;8808;52.478;13.378;2024-02-15T02:23:21;10.10;99.90
17381;DHT22;8808;52.478;13.378;2024-02-15T02:25:52;10.10;99.90
17381;DHT22;8808;52.478;13.378;2024-02-15T02:28:20;10.10;99.90
17381;DHT22;8808;52.478;13.378;2024-02-15T02:30:48;10.10;99.90
17381;DHT22;8808;52.478;13.378;2024-02-15T02:33:15;10.00;99.90
17381;DHT22;8808;52.478;13.378;2024-02-15T02:35:44;10.10;99.90
17381;DHT22;8808;52.478;13.378;2024-02-15T02:38:12;10.00;99.90
17381;DHT22;8808;52.478;13.378;2024-02-15T02:40:40;10.10;99.90
17381;DHT22;8808;52.478;13.378;2024-02-15T02:43:08;10.10;99.90
17381;DHT22;8808;52.478;13.378;2024-02-15T02:45:35;10.10;99.90
17381;DHT22;8808;52.478;13.378;2024-02-15T02:48:02;10.10;99.90
17381;DHT22;8808;52.478;13.378;2024-02-15T02:50:29;10.10;99.90
17381;DHT22;8808;52.478;13.378;2024-02-15T02:52:56;10.10;99.90
17381;DHT22;8808;52.478;13.378;2024-02-15T02:55:23;10.10;99.90
17381;DHT22;8808;52.478;13.378;2024-02-15T02:57:52;10.10;99.90
17381;DHT22;8808;52.478;13.378;2024-02-15T03:00:22;10.10;99.90
17381;DHT22;8808;52.478;13.378;2024-02-15T03:02:49;10.10;99.90
17381;DHT22;8808;52.478;13.378;2024-02-15T03:05:16;10.10;99.90
17381;DHT22;8808;52.478;13.378;2024-02-15T03:07:46;10.10;99.90
17381;DHT22;8808;52.478;13.378;2024-02-15T03:10:13;10.10;99.90
17381;DHT22;8808;52.478;13.378;2024-02-15T03:12:40;10.10;99.90
17381;DHT22;8808;52.478;13.378;2024-02-15T03:15:13;10.10;99.90
17381;DHT22;8808;52.478;13.378;2024-02-15T03:17:42;10.20;99.90
17381;DHT22;8808;52.478;13.378;2024-02-15T03:20:10;10.20;99.90
17381;DHT22;8808;52.478;13.378;2024-02-15T03:22:50;10.10;99.90
17381;DHT22;8808;52.478;13.378;2024-02-15T03:25:17;10.20;99.90
17381;DHT22;8808;52.478;13.378;2024-02-15T03:27:44;10.20;99.90
17381;DHT22;8808;52.478;13.378;2024-02-15T03:30:11;10.20;99.90
17381;DHT22;8808;52.478;13.378;2024-02-15T03:32:41;10.20;99.90
17381;DHT22;8808;52.478;13.378;2024-02-15T03:35:08;10.20;99.90
17381;DHT22;8808;52.478;13.378;2024-02-15T03:37:35;10.90;99.90
17381;DHT22;8808;52.478;13.378;2024-02-15T03:40:03;10.20;99.90
17381;DHT22;8808;52.478;13.378;2024-02-15T03:44:57;10.20;99.90
17381;DHT22;8808;52.478;13.378;2024-02-15T03:47:24;10.20;99.90
17381;DHT22;8808;52.478;13.378;2024-02-15T03:49:55;10.20;99.90
17381;DHT22;8808;52.478;13.378;2024-02-15T03:52:23;10.20;99.90
17381;DHT22;8808;52.478;13.378;2024-02-15T03:54:50;10.20;99.90
17381;DHT22;8808;52.478;13.378;2024-02-15T03:57:18;10.20;99.90
17381;DHT22;8808;52.478;13.378;2024-02-15T03:59:46;10.20;99.90
17381;DHT22;8808;52.478;13.378;2024-02-15T04:02:16;10.20;99.90
17381;DHT22;8808;52.478;13.378;2024-02-15T04:04:44;10.20;99.90
17381;DHT22;8808;52.478;13.378;2024-02-15T04:07:14;10.30;99.90
17381;DHT22;8808;52.478;13.378;2024-02-15T04:39:16;10.20;99.90
17381;DHT22;8808;52.478;13.378;2024-02-15T04:59:08;10.30;99.90
17381;DHT22;8808;52.478;13.378;2024-02-15T05:06:33;10.40;99.90
17381;DHT22;8808;52.478;13.378;2024-02-15T05:09:02;10.40;99.90
17381;DHT22;8808;52.478;13.378;2024-02-15T05:16:32;10.40;99.90
17381;DHT22;8808;52.478;13.378;2024-02-15T05:18:59;10.40;99.90
17381;DHT22;8808;52.478;13.378;2024-02-15T05:21:26;10.30;99.90
17381;DHT22;8808;52.478;13.378;2024-02-15T05:26:21;10.40;99.90
17381;DHT22;8808;52.478;13.378;2024-02-15T05:28:49;10.80;99.90
17381;DHT22;8808;52.478;13.378;2024-02-15T05:31:18;10.50;99.90
17381;DHT22;8808;52.478;13.378;2024-02-15T05:33:47;10.40;99.90
17381;DHT22;8808;52.478;13.378;2024-02-15T05:36:15;10.40;99.90
17381;DHT22;8808;52.478;13.378;2024-02-15T05:38:46;10.30;99.90
17381;DHT22;8808;52.478;13.378;2024-02-15T05:41:14;10.30;99.90
17381;DHT22;8808;52.478;13.378;2024-02-15T05:43:42;10.30;99.90
17381;DHT22;8808;52.478;13.378;2024-02-15T06:05:54;10.30;99.90
17381;DHT22;8808;52.478;13.378;2024-02-15T06:08:25;10.40;99.90
17381;DHT22;8808;52.478;13.378;2024-02-15T06:10:52;10.40;99.90
17381;DHT22;8808;52.478;13.378;2024-02-15T06:13:19;10.40;99.90
17381;DHT22;8808;52.478;13.378;2024-02-15T06:15:46;10.40;99.90
17381;DHT22;8808;52.478;13.378;2024-02-15T06:18:18;10.40;99.90
17381;DHT22;8808;52.478;13.378;2024-02-15T08:20:51;10.40;99.90
17381;DHT22;8808;52.478;13.378;2024-02-15T08:23:18;11.30;99.90
17381;DHT22;8808;52.478;13.378;2024-02-15T08:25:46;11.30;99.90
17381;DHT22;8808;52.478;13.378;2024-02-15T08:28:13;11.30;99.90
17381;DHT22;8808;52.478;13.378;2024-02-15T08:30:40;11.30;99.90
17381;DHT22;8808;52.478;13.378;2024-02-15T08:33:07;11.40;99.90
17381;DHT22;8808;52.478;13.378;2024-02-15T08:38:05;11.40;99.90
17381;DHT22;8808;52.478;13.378;2024-02-15T08:40:32;11.40;99.90
17381;DHT22;8808;52.478;13.378;2024-02-15T08:55:18;11.40;99.90
17381;DHT22;8808;52.478;13.378;2024-02-15T09:00:18;11.40;99.90
17381;DHT22;8808;52.478;13.378;2024-02-15T09:07:44;11.50;99.90
17381;DHT22;8808;52.478;13.378;2024-02-15T09:10:13;11.60;99.90
17381;DHT22;8808;52.478;13.378;2024-02-15T09:12:43;11.60;99.90
17381;DHT22;8808;52.478;13.378;2024-02-15T10:47:07;11.70;99.90
